Crookston, MN

3:35 AM CST on January 18, 2017 (GMT -0600)
Crookston Municipal-Kirkwood

Weather History for KCKN - April, 2014

Change the Weather History Date:

Saturday, April 26, 2014

  Actual Average Record
Temperature  
Mean Temperature 43 °F -  
Max Temperature 53 °F 58 °F 73 °F (2007)
Min Temperature 33 °F 33 °F 19 °F (2002)
Degree Days  
Heating Degree Days 22    
Moisture  
Dew Point 33 °F    
Average Humidity 68    
Maximum Humidity 87    
Minimum Humidity 50    
Precipitation  
Precipitation 0.00 in - - ()
Sea Level Pressure  
Sea Level Pressure 29.96 in    
Wind  
Wind Speed 9 mph (ESE)    
Max Wind Speed 18 mph    
Max Gust Speed 26 mph    
Visibility 10 miles    
Events      
Averages and records for this station are not official NWS values.
T = Trace of Precipitation, MM = Missing Value Source: NWS Daily Summary

Daily Weather History Graph

Daily Weather History Graph

Search for Another Location

Airport or City:

Trip Planner

Search our weather history database for the weather conditions in past years. The results will help you decide how hot, cold, wet, or windy it might be!

Date:

Astronomy

Apr. 26, 2014 Rise Set
Actual Time 6:17 AM CDT 8:32 PM CDT
Civil Twilight 5:43 AM CDT 9:06 PM CDT
Nautical Twilight 5:01 AM CDT 9:48 PM CDT
Astronomical Twilight 4:13 AM CDT 10:36 PM CDT
Moon 4:55 AM CDT (4/26) 5:51 PM CDT (4/26)
Length of Visible Light 15h 23m
Length of Day
14h 15m
Waning Crescent, 8% of the Moon is Illuminated
Apr 26
Waning Crescent
Apr 29
New
May 6
First Quarter
May 14
Full
May 21
Last Quarter

Hourly Weather History & Observations

Time (CDT) Temp. Windchill Dew Point Humidity Pressure Visibility Wind Dir Wind Speed Gust Speed Precip Events Conditions
12:15 AM 37.4 °F 33.8 °F 33.8 °F 87% 29.97 in 10.0 mi East 4.6 mph - N/A   Clear
12:34 AM 37.4 °F 33.8 °F 33.8 °F 87% 29.98 in 10.0 mi East 4.6 mph - N/A   Clear
12:54 AM 37.4 °F 33.8 °F 33.8 °F 87% 29.98 in 10.0 mi East 4.6 mph - N/A   Clear
1:15 AM 37.4 °F 32.8 °F 33.8 °F 87% 29.97 in 10.0 mi East 5.8 mph - N/A   Clear
1:34 AM 35.6 °F 30.7 °F 32.0 °F 87% 29.98 in 10.0 mi East 5.8 mph - N/A   Clear
1:54 AM 35.6 °F 31.7 °F 32.0 °F 87% 29.98 in 10.0 mi East 4.6 mph - N/A   Clear
2:14 AM 35.6 °F 29.9 °F 32.0 °F 87% 29.97 in 10.0 mi East 6.9 mph - N/A   Clear
2:34 AM 35.6 °F 29.9 °F 32.0 °F 87% 29.97 in 10.0 mi East 6.9 mph - N/A   Clear
2:55 AM 35.6 °F 29.9 °F 32.0 °F 87% 29.98 in 10.0 mi East 6.9 mph - N/A   Clear
3:14 AM 35.6 °F 29.2 °F 32.0 °F 87% 29.98 in 10.0 mi East 8.1 mph - N/A   Clear
3:35 AM 35.6 °F 28.6 °F 32.0 °F 87% 29.97 in 10.0 mi East 9.2 mph - N/A   Clear
3:54 AM 35.6 °F 28.0 °F 32.0 °F 87% 29.97 in 10.0 mi East 10.4 mph - N/A   Clear
4:14 AM 35.6 °F 28.0 °F 32.0 °F 87% 29.97 in 10.0 mi East 10.4 mph - N/A   Clear
4:35 AM 35.6 °F 28.6 °F 32.0 °F 87% 29.97 in 10.0 mi East 9.2 mph - N/A   Scattered Clouds
4:54 AM 35.6 °F 29.2 °F 32.0 °F 87% 29.97 in 10.0 mi East 8.1 mph - N/A   Scattered Clouds
5:14 AM 35.6 °F 29.2 °F 32.0 °F 87% 29.97 in 10.0 mi East 8.1 mph - N/A   Clear
5:35 AM 35.6 °F 29.9 °F 32.0 °F 87% 29.99 in 10.0 mi ESE 6.9 mph - N/A   Scattered Clouds
5:54 AM 35.6 °F 30.7 °F 30.2 °F 81% 30.00 in 10.0 mi SE 5.8 mph - N/A   Scattered Clouds
6:15 AM 35.6 °F 28.6 °F 30.2 °F 81% 29.99 in 10.0 mi ESE 9.2 mph - N/A   Clear
6:34 AM 33.8 °F 28.6 °F 30.2 °F 87% 30.00 in 10.0 mi SE 5.8 mph - N/A   Clear
6:54 AM 33.8 °F 29.6 °F 30.2 °F 87% 30.01 in 10.0 mi ESE 4.6 mph - N/A   Clear
7:15 AM 33.8 °F 28.6 °F 30.2 °F 87% 30.01 in 10.0 mi SE 5.8 mph - N/A   Clear
7:34 AM 35.6 °F 29.9 °F 30.2 °F 81% 30.01 in 10.0 mi ESE 6.9 mph - N/A   Clear
7:54 AM 35.6 °F 29.2 °F 32.0 °F 87% 30.01 in 10.0 mi ESE 8.1 mph - N/A   Clear
8:14 AM 37.4 °F 30.8 °F 33.8 °F 87% 30.00 in 10.0 mi ESE 9.2 mph - N/A   Clear
8:34 AM 37.4 °F 31.4 °F 33.8 °F 87% 30.02 in 10.0 mi ESE 8.1 mph - N/A   Clear
9:14 AM 39.2 °F 33.0 °F 35.6 °F 87% 30.01 in 10.0 mi ESE 9.2 mph - N/A   Clear
9:35 AM 41.0 °F 33.9 °F 33.8 °F 76% 30.01 in 10.0 mi SE 12.7 mph - N/A   Clear
9:55 AM 42.8 °F 36.6 °F 33.8 °F 70% 30.01 in 10.0 mi SE 11.5 mph - N/A   Clear
10:14 AM 44.6 °F 38.8 °F 33.8 °F 66% 30.00 in 10.0 mi SE 11.5 mph - N/A   Clear
10:35 AM 44.6 °F 38.8 °F 33.8 °F 66% 30.00 in 10.0 mi ESE 11.5 mph - N/A   Clear
10:54 AM 46.4 °F 40.7 °F 35.6 °F 66% 29.99 in 10.0 mi SE 12.7 mph - N/A   Clear
11:14 AM 46.4 °F 40.4 °F 33.8 °F 62% 29.98 in 10.0 mi ESE 13.8 mph 17.3 mph N/A   Clear
11:35 AM 48.2 °F - 33.8 °F 58% 29.98 in 10.0 mi ESE 16.1 mph 21.9 mph N/A   Clear
11:54 AM 48.2 °F - 33.8 °F 58% 29.98 in 10.0 mi SE 12.7 mph - N/A   Clear
12:14 PM 48.2 °F - 33.8 °F 58% 29.97 in 10.0 mi ESE 12.7 mph 20.7 mph N/A   Clear
12:35 PM 50.0 °F - 35.6 °F 58% 29.96 in 10.0 mi East 13.8 mph 18.4 mph N/A   Clear
12:54 PM 50.0 °F - 33.8 °F 54% 29.97 in 10.0 mi ESE 15.0 mph 18.4 mph N/A   Clear
1:15 PM 51.8 °F - 35.6 °F 54% 29.96 in 10.0 mi ESE 15.0 mph 19.6 mph N/A   Clear
1:34 PM 51.8 °F - 33.8 °F 50% 29.96 in 10.0 mi ESE 15.0 mph 23.0 mph N/A   Clear
1:54 PM 51.8 °F - 33.8 °F 50% 29.96 in 10.0 mi SE 15.0 mph 20.7 mph N/A   Clear
2:15 PM 53.6 °F - 35.6 °F 51% 29.95 in 10.0 mi ESE 15.0 mph 20.7 mph N/A   Clear
2:34 PM 53.6 °F - 35.6 °F 51% 29.95 in 10.0 mi ESE 13.8 mph 17.3 mph N/A   Clear
2:54 PM 53.6 °F - 35.6 °F 51% 29.95 in 10.0 mi SE 13.8 mph 21.9 mph N/A   Clear
3:14 PM 51.8 °F - 35.6 °F 54% 29.95 in 10.0 mi ESE 12.7 mph 20.7 mph N/A   Clear
3:35 PM 51.8 °F - 35.6 °F 54% 29.94 in 10.0 mi ESE 15.0 mph 20.7 mph N/A   Clear
3:55 PM 51.8 °F - 33.8 °F 50% 29.93 in 10.0 mi ESE 13.8 mph - N/A   Clear
4:14 PM 51.8 °F - 33.8 °F 50% 29.93 in 10.0 mi ESE 13.8 mph 20.7 mph N/A   Clear
4:35 PM 51.8 °F - 33.8 °F 50% 29.92 in 10.0 mi ESE 13.8 mph 20.7 mph N/A   Clear
4:54 PM 51.8 °F - 33.8 °F 50% 29.91 in 10.0 mi East 15.0 mph - N/A   Clear
5:14 PM 50.0 °F - 33.8 °F 54% 29.91 in 10.0 mi East 13.8 mph 23.0 mph N/A   Clear
5:35 PM 48.2 °F - 33.8 °F 58% 29.90 in 10.0 mi ESE 17.3 mph 23.0 mph N/A   Clear
5:54 PM 48.2 °F - 33.8 °F 58% 29.91 in 10.0 mi East 13.8 mph 20.7 mph N/A   Clear
6:14 PM 50.0 °F - 33.8 °F 54% 29.90 in 10.0 mi ESE 18.4 mph 24.2 mph N/A   Clear
6:35 PM 50.0 °F - 33.8 °F 54% 29.91 in 10.0 mi ESE 18.4 mph 26.5 mph N/A   Clear
6:54 PM 50.0 °F - 33.8 °F 54% 29.91 in 10.0 mi ESE 13.8 mph 23.0 mph N/A   Clear
7:14 PM 48.2 °F - 32.0 °F 54% 29.91 in 10.0 mi ESE 18.4 mph 25.3 mph N/A   Clear
7:35 PM 48.2 °F - 33.8 °F 58% 29.91 in 10.0 mi ESE 13.8 mph 18.4 mph N/A   Clear
7:54 PM 48.2 °F - 33.8 °F 58% 29.91 in 10.0 mi ESE 13.8 mph 20.7 mph N/A   Clear
8:15 PM 46.4 °F 40.7 °F 32.0 °F 57% 29.91 in 10.0 mi ESE 12.7 mph 18.4 mph N/A   Clear
8:34 PM 46.4 °F 40.7 °F 32.0 °F 57% 29.91 in 10.0 mi ESE 12.7 mph 19.6 mph N/A   Scattered Clouds
8:55 PM 46.4 °F 40.4 °F 32.0 °F 57% 29.91 in 10.0 mi ESE 13.8 mph 19.6 mph N/A   Scattered Clouds
9:15 PM 46.4 °F 40.4 °F 30.2 °F 53% 29.91 in 10.0 mi ESE 13.8 mph 19.6 mph N/A   Scattered Clouds
9:34 PM 46.4 °F 40.1 °F 30.2 °F 53% 29.92 in 10.0 mi ESE 15.0 mph - N/A   Scattered Clouds
9:55 PM 46.4 °F 39.8 °F 30.2 °F 53% 29.94 in 10.0 mi ESE 16.1 mph - N/A   Overcast
10:14 PM 46.4 °F 41.1 °F 30.2 °F 53% 29.94 in 10.0 mi ESE 11.5 mph - N/A   Overcast
10:35 PM 44.6 °F 38.4 °F 30.2 °F 57% 29.95 in 10.0 mi ESE 12.7 mph 18.4 mph N/A   Scattered Clouds
10:55 PM 44.6 °F 38.1 °F 30.2 °F 57% 29.95 in 10.0 mi ESE 13.8 mph - N/A   Clear
11:14 PM 44.6 °F 38.1 °F 30.2 °F 57% 29.94 in 10.0 mi ESE 13.8 mph - N/A   Clear
11:35 PM 44.6 °F 38.1 °F 30.2 °F 57% 29.93 in 10.0 mi ESE 13.8 mph 18.4 mph N/A   Clear
11:54 PM 44.6 °F 37.8 °F 30.2 °F 57% 29.92 in 10.0 mi ESE 15.0 mph 20.7 mph N/A   Clear